Time;durP1;ratioP1;P1;durP2;ratioP2;P2;SDS_P1;SDS_P2;PMS_P1;PMS_P2;Temp;Humidity;BMP_temperature;BMP_pressure;BME280_temperature;BME280_humidity;BME280_pressure;Samples;Min_cycle;Max_cycle;Signal;HPM_P1;HPM_P2
2021/03/09 00:01:50;;;;;;;19.07;13.03;;;-1.50;99.90;;;;;;5115497;28;20103;-78
2021/03/09 00:04:16;;;;;;;18.47;12.40;;;-1.50;99.90;;;;;;5111137;28;20480;-78
2021/03/09 00:06:41;;;;;;;17.17;11.63;;;-1.50;99.90;;;;;;5108286;28;20019;-78
2021/03/09 00:09:07;;;;;;;19.80;12.47;;;-1.50;99.90;;;;;;5091497;28;20153;-78
2021/03/09 00:11:32;;;;;;;19.63;13.37;;;-1.60;99.90;;;;;;5093669;28;20111;-78
2021/03/09 00:13:58;;;;;;;19.97;11.97;;;-1.60;99.90;;;;;;5092436;28;20027;-78
2021/03/09 00:16:23;;;;;;;22.57;13.77;;;-1.60;99.90;;;;;;5093749;28;20027;-78
2021/03/09 00:18:49;;;;;;;20.23;13.70;;;-1.70;99.90;;;;;;5094202;28;20039;-78
2021/03/09 00:21:14;;;;;;;25.63;13.57;;;-1.70;99.90;;;;;;5094747;28;20024;-78
2021/03/09 00:23:40;;;;;;;23.20;14.73;;;-1.70;99.90;;;;;;5094686;28;20020;-78
2021/03/09 00:26:05;;;;;;;26.37;14.80;;;-1.70;99.90;;;;;;5094160;28;20052;-78
2021/03/09 00:28:31;;;;;;;23.67;14.30;;;-1.70;99.90;;;;;;5103927;28;20059;-78
2021/03/09 00:30:57;;;;;;;24.77;12.60;;;-1.70;99.90;;;;;;5101037;28;20027;-78
2021/03/09 00:33:22;;;;;;;20.67;12.53;;;-1.80;99.90;;;;;;5094407;28;20020;-78
2021/03/09 00:35:48;;;;;;;20.47;13.00;;;-1.80;99.90;;;;;;5094087;28;20081;-78
2021/03/09 00:38:13;;;;;;;18.93;12.80;;;-1.80;99.90;;;;;;5092964;28;20481;-78
2021/03/09 00:40:39;;;;;;;40.67;18.27;;;-1.80;99.90;;;;;;5094347;28;20438;-78
2021/03/09 00:43:05;;;;;;;40.57;17.60;;;-1.80;99.90;;;;;;5094569;28;20404;-78
2021/03/09 00:45:30;;;;;;;25.37;14.50;;;-1.80;99.90;;;;;;5093951;28;20028;-78
2021/03/09 00:47:57;;;;;;;26.70;14.77;;;-1.90;99.90;;;;;;5094039;28;20024;-78
2021/03/09 00:50:22;;;;;;;23.73;14.33;;;-1.90;99.90;;;;;;5092642;28;20535;-78
2021/03/09 00:52:48;;;;;;;25.40;14.80;;;-1.90;99.90;;;;;;5110199;28;20145;-78
2021/03/09 00:55:14;;;;;;;20.03;12.43;;;-2.00;99.90;;;;;;5113576;28;20057;-78
2021/03/09 00:57:39;;;;;;;26.33;13.03;;;-2.00;99.90;;;;;;5105083;28;20063;-78
2021/03/09 01:00:06;;;;;;;21.47;12.67;;;-2.00;99.90;;;;;;5093847;28;20036;-78
2021/03/09 01:02:31;;;;;;;20.17;13.20;;;-2.00;99.90;;;;;;5093769;28;20032;-77
2021/03/09 01:04:57;;;;;;;22.97;13.03;;;-2.00;99.90;;;;;;5092503;28;20124;-78
2021/03/09 01:07:23;;;;;;;21.40;12.93;;;-2.10;99.90;;;;;;5093427;28;20020;-78
2021/03/09 01:09:48;;;;;;;19.83;12.00;;;-2.10;99.90;;;;;;5093629;28;20023;-78
2021/03/09 01:12:14;;;;;;;19.20;12.53;;;-2.10;99.90;;;;;;5093301;28;20526;-78
2021/03/09 01:14:39;;;;;;;24.37;12.30;;;-2.10;99.90;;;;;;5093648;28;20522;-78
2021/03/09 01:17:05;;;;;;;20.53;12.63;;;-2.10;99.90;;;;;;5108803;28;20019;-78
2021/03/09 01:19:30;;;;;;;22.03;13.43;;;-2.10;99.90;;;;;;5094125;28;20032;-82
2021/03/09 01:21:56;;;;;;;20.30;13.00;;;-2.10;99.90;;;;;;5093928;28;20065;-82
2021/03/09 01:24:22;;;;;;;23.67;13.97;;;-2.20;99.90;;;;;;5093497;28;20040;-82
2021/03/09 01:26:47;;;;;;;20.60;12.87;;;-2.20;99.90;;;;;;5093678;28;20029;-83
2021/03/09 01:29:13;;;;;;;21.30;13.27;;;-2.20;99.90;;;;;;5093671;28;20030;-83
2021/03/09 01:31:38;;;;;;;23.23;13.23;;;-2.20;99.90;;;;;;5093699;28;20384;-82
2021/03/09 01:34:04;;;;;;;21.67;13.23;;;-2.30;99.90;;;;;;5093932;28;20028;-82
2021/03/09 01:36:29;;;;;;;19.30;12.60;;;-2.30;99.90;;;;;;5093686;28;20024;-83
2021/03/09 01:38:55;;;;;;;22.47;13.77;;;-2.30;99.90;;;;;;5092356;28;20110;-82
2021/03/09 01:41:20;;;;;;;19.17;12.83;;;-2.30;99.90;;;;;;5093632;28;20039;-82
2021/03/09 01:43:46;;;;;;;22.63;13.60;;;-2.30;99.90;;;;;;5092335;28;20028;-82
2021/03/09 01:46:12;;;;;;;21.47;13.10;;;-2.30;99.90;;;;;;5092689;28;20392;-82
2021/03/09 01:48:43;;;;;;;21.43;13.63;;;-2.40;99.90;;;;;;5093809;28;20034;-82
2021/03/09 01:51:11;;;;;;;22.67;13.80;;;-2.30;99.90;;;;;;5092604;28;20372;-83
2021/03/09 01:53:36;;;;;;;24.10;14.10;;;-2.40;99.90;;;;;;5093743;28;20103;-82
2021/03/09 01:56:02;;;;;;;22.23;13.83;;;-2.40;99.90;;;;;;5093489;28;20465;-82
2021/03/09 01:58:30;;;;;;;20.37;14.10;;;-2.40;99.90;;;;;;5092285;28;20024;-82
2021/03/09 02:00:56;;;;;;;19.43;13.17;;;-2.40;99.90;;;;;;5093598;28;20051;-82
2021/03/09 02:03:22;;;;;;;20.97;13.47;;;-2.50;99.90;;;;;;5093800;28;20477;-82
2021/03/09 02:05:47;;;;;;;23.23;13.93;;;-2.50;99.90;;;;;;5093378;28;20036;-82
2021/03/09 02:08:13;;;;;;;20.57;13.53;;;-2.50;99.90;;;;;;5091956;28;20093;-82
2021/03/09 02:10:39;;;;;;;22.40;14.13;;;-2.50;99.90;;;;;;5093234;28;20051;-82
2021/03/09 02:13:24;;;;;;;21.20;13.60;;;-2.50;99.90;;;;;;5093495;28;20085;-82
2021/03/09 02:16:21;;;;;;;25.53;14.60;;;-2.50;99.90;;;;;;5105836;28;20030;-82
2021/03/09 02:19:09;;;;;;;24.67;15.37;;;-2.50;99.90;;;;;;5071969;28;20419;-82
2021/03/09 02:21:56;;;;;;;30.53;15.53;;;-2.50;99.90;;;;;;5072873;28;20063;-82
2021/03/09 02:24:30;;;;;;;25.80;14.57;;;-2.60;99.90;;;;;;5072688;28;20044;-82
2021/03/09 02:27:14;;;;;;;27.40;15.63;;;-2.60;99.90;;;;;;5073017;28;20024;-82
2021/03/09 02:29:40;;;;;;;25.00;15.73;;;-2.60;99.90;;;;;;5071586;28;20020;-82
2021/03/09 02:32:16;;;;;;;27.13;14.70;;;-2.60;99.90;;;;;;5071611;28;20039;-82
2021/03/09 02:34:49;;;;;;;22.80;14.60;;;-2.60;99.90;;;;;;5072746;28;20086;-82
2021/03/09 02:37:17;;;;;;;22.40;14.43;;;-2.60;99.90;;;;;;5072956;28;20042;-82
2021/03/09 02:39:45;;;;;;;19.33;12.67;;;-2.60;99.90;;;;;;5072131;28;20357;-82
2021/03/09 02:42:15;;;;;;;24.17;15.00;;;-2.70;99.90;;;;;;5071741;28;20060;-82
2021/03/09 02:44:42;;;;;;;27.13;14.20;;;-2.70;99.90;;;;;;5071509;28;20029;-82
2021/03/09 02:47:11;;;;;;;24.17;14.47;;;-2.70;99.90;;;;;;5072678;28;20098;-82
2021/03/09 02:49:41;;;;;;;24.93;14.07;;;-2.70;99.90;;;;;;5073112;28;20115;-82
2021/03/09 02:52:07;;;;;;;23.40;14.53;;;-2.70;99.90;;;;;;5072823;28;20024;-82
2021/03/09 02:54:36;;;;;;;23.70;14.60;;;-2.80;99.90;;;;;;5071463;28;20033;-82
2021/03/09 02:57:03;;;;;;;27.73;15.60;;;-2.80;99.90;;;;;;5071791;28;20064;-83
2021/03/09 02:59:31;;;;;;;22.27;14.83;;;-2.80;99.90;;;;;;5076682;28;20116;-82
2021/03/09 03:01:58;;;;;;;26.00;13.87;;;-2.80;99.90;;;;;;5076470;28;20056;-82
2021/03/09 03:04:24;;;;;;;25.20;14.80;;;-2.80;99.90;;;;;;5077099;28;20052;-82
2021/03/09 03:06:51;;;;;;;26.40;14.70;;;-2.80;99.90;;;;;;5077539;28;20088;-82
2021/03/09 03:09:19;;;;;;;24.63;14.93;;;-2.80;99.90;;;;;;5077914;28;20024;-82
2021/03/09 03:11:45;;;;;;;22.77;14.67;;;-2.80;99.90;;;;;;5078234;28;20020;-83
2021/03/09 03:14:12;;;;;;;24.77;14.47;;;-2.90;99.90;;;;;;5083645;28;20016;-82
2021/03/09 03:16:39;;;;;;;21.80;14.03;;;-2.90;99.90;;;;;;5084280;28;20060;-82
2021/03/09 03:19:09;;;;;;;24.57;14.20;;;-2.90;99.90;;;;;;5084019;28;20425;-83
2021/03/09 03:21:39;;;;;;;23.43;14.10;;;-2.90;99.90;;;;;;5082403;28;20012;-82
2021/03/09 03:24:06;;;;;;;22.37;15.43;;;-2.90;99.90;;;;;;5082305;28;20034;-83
2021/03/09 03:26:37;;;;;;;25.13;15.57;;;-2.90;99.90;;;;;;5078150;28;20376;-83
2021/03/09 03:29:05;;;;;;;22.43;14.50;;;-3.00;99.90;;;;;;5074476;28;20111;-79
2021/03/09 03:31:31;;;;;;;24.17;15.57;;;-3.00;99.90;;;;;;5074650;28;20021;-78
2021/03/09 03:33:57;;;;;;;25.60;15.03;;;-3.00;99.90;;;;;;5114708;28;20031;-78
2021/03/09 03:36:24;;;;;;;22.50;14.83;;;-3.00;99.90;;;;;;5100045;28;20368;-79
2021/03/09 03:38:50;;;;;;;22.37;14.60;;;-3.00;99.90;;;;;;5095724;28;20109;-79
2021/03/09 03:41:15;;;;;;;23.97;14.10;;;-3.00;99.90;;;;;;5094004;28;20177;-79
2021/03/09 03:43:41;;;;;;;28.47;16.43;;;-3.00;99.90;;;;;;5093960;28;20499;-78
2021/03/09 03:46:07;;;;;;;24.20;14.87;;;-3.00;99.90;;;;;;5095528;28;20080;-78
2021/03/09 03:48:37;;;;;;;24.07;14.53;;;-3.10;99.90;;;;;;5095988;28;20031;-78
2021/03/09 03:51:06;;;;;;;24.73;15.23;;;-3.10;99.90;;;;;;5116010;28;20062;-78
2021/03/09 03:54:00;;;;;;;25.00;15.00;;;-3.10;99.90;;;;;;5115714;28;20024;-78
2021/03/09 03:56:44;;;;;;;24.43;14.07;;;-3.10;99.90;;;;;;5114908;28;20039;-79
2021/03/09 03:59:26;;;;;;;23.83;14.60;;;-3.10;99.90;;;;;;5115410;28;20019;-79
2021/03/09 04:01:53;;;;;;;21.30;13.30;;;-3.10;99.90;;;;;;5115014;28;20097;-79
2021/03/09 04:04:21;;;;;;;23.97;14.77;;;-3.10;99.90;;;;;;5115759;28;20023;-79
2021/03/09 04:06:49;;;;;;;24.53;15.30;;;-3.20;99.90;;;;;;5114051;28;20163;-79
2021/03/09 04:09:16;;;;;;;25.00;15.57;;;-3.20;99.90;;;;;;5114823;28;20172;-79
2021/03/09 04:11:42;;;;;;;22.60;14.73;;;-3.20;99.90;;;;;;5111507;28;20028;-79
2021/03/09 04:14:10;;;;;;;25.67;14.37;;;-3.20;99.90;;;;;;5111920;28;20023;-78
2021/03/09 04:16:36;;;;;;;23.83;15.90;;;-3.20;99.90;;;;;;5110627;28;20018;-78
2021/03/09 04:19:04;;;;;;;23.77;14.97;;;-3.30;99.90;;;;;;5114818;28;20508;-78
2021/03/09 04:21:30;;;;;;;23.50;15.33;;;-3.30;99.90;;;;;;5114554;28;20055;-78
2021/03/09 04:23:57;;;;;;;20.47;13.70;;;-3.30;99.90;;;;;;5095303;28;20032;-79
2021/03/09 04:26:23;;;;;;;23.23;13.77;;;-3.30;99.90;;;;;;5093967;28;20039;-78
2021/03/09 04:28:50;;;;;;;22.40;14.93;;;-3.30;99.90;;;;;;5112451;28;20384;-79
2021/03/09 04:31:18;;;;;;;26.37;14.70;;;-3.30;99.90;;;;;;5107633;28;20067;-78
2021/03/09 04:33:45;;;;;;;24.60;14.80;;;-3.30;99.90;;;;;;5093696;28;20025;-79
2021/03/09 04:36:10;;;;;;;24.33;14.67;;;-3.30;99.90;;;;;;5102271;28;20111;-79
2021/03/09 04:38:37;;;;;;;22.33;13.57;;;-3.30;99.90;;;;;;5112673;28;20107;-78
2021/03/09 04:41:03;;;;;;;22.83;13.77;;;-3.30;99.90;;;;;;5112421;28;20076;-78
2021/03/09 04:43:28;;;;;;;22.90;14.37;;;-3.40;99.90;;;;;;5113821;28;20023;-78
2021/03/09 04:45:57;;;;;;;20.87;13.07;;;-3.40;99.90;;;;;;5113755;28;20030;-78
2021/03/09 04:48:24;;;;;;;20.23;12.70;;;-3.40;99.90;;;;;;5106313;28;20468;-79
2021/03/09 04:50:51;;;;;;;25.40;12.67;;;-3.40;99.90;;;;;;5093821;28;20028;-78
2021/03/09 04:53:18;;;;;;;23.40;13.93;;;-3.50;99.90;;;;;;5093984;28;20099;-78
2021/03/09 04:55:43;;;;;;;23.27;12.50;;;-3.50;99.90;;;;;;5092364;28;20031;-78
2021/03/09 04:58:09;;;;;;;23.00;13.70;;;-3.50;99.90;;;;;;5093638;28;20020;-78
2021/03/09 05:00:34;;;;;;;19.70;13.33;;;-3.50;99.90;;;;;;5093962;28;20024;-78
2021/03/09 05:03:00;;;;;;;22.23;13.60;;;-3.50;99.90;;;;;;5092045;28;20070;-78
2021/03/09 05:05:26;;;;;;;25.63;15.13;;;-3.50;99.90;;;;;;5093694;28;20032;-78
2021/03/09 05:07:52;;;;;;;28.43;15.20;;;-3.60;99.90;;;;;;5092058;28;20784;-78
2021/03/09 05:10:19;;;;;;;24.83;14.23;;;-3.60;99.90;;;;;;5092019;28;20358;-78
2021/03/09 05:12:49;;;;;;;23.87;14.53;;;-3.60;99.90;;;;;;5101444;28;20019;-78
2021/03/09 05:15:15;;;;;;;25.87;15.60;;;-3.60;99.90;;;;;;5107614;28;20016;-78
2021/03/09 05:17:41;;;;;;;25.60;15.67;;;-3.60;99.90;;;;;;5093039;28;20023;-78
2021/03/09 05:20:10;;;;;;;26.73;15.07;;;-3.60;99.90;;;;;;5092518;28;20085;-78
2021/03/09 05:22:37;;;;;;;24.37;15.07;;;-3.60;99.90;;;;;;5092548;28;20028;-79
2021/03/09 05:25:05;;;;;;;30.00;17.43;;;-3.60;99.90;;;;;;5091288;28;21330;-78
2021/03/09 05:27:30;;;;;;;28.37;16.70;;;-3.60;99.90;;;;;;5093447;28;20039;-82
2021/03/09 05:29:56;;;;;;;26.80;16.53;;;-3.60;99.90;;;;;;5092220;28;20028;-81
2021/03/09 05:32:21;;;;;;;34.53;17.97;;;-3.60;99.90;;;;;;5093412;28;20119;-81
2021/03/09 05:34:47;;;;;;;52.77;33.23;;;-3.60;99.90;;;;;;5093414;28;20052;-81
2021/03/09 05:37:12;;;;;;;57.17;34.77;;;-3.70;99.90;;;;;;5093324;28;20027;-82
2021/03/09 05:39:39;;;;;;;37.13;19.90;;;-3.60;99.90;;;;;;5093275;28;20023;-81
2021/03/09 05:42:05;;;;;;;33.33;17.27;;;-3.70;99.90;;;;;;5093858;28;20085;-81
2021/03/09 05:44:36;;;;;;;34.00;18.43;;;-3.60;99.90;;;;;;5071786;28;20024;-81
2021/03/09 05:47:03;;;;;;;26.73;16.80;;;-3.60;99.90;;;;;;5072845;28;20028;-81
2021/03/09 05:49:29;;;;;;;32.23;16.20;;;-3.60;99.90;;;;;;5084897;28;20345;-81
2021/03/09 05:51:55;;;;;;;33.23;17.50;;;-3.60;99.90;;;;;;5093035;28;20115;-81
2021/03/09 05:54:22;;;;;;;32.80;17.90;;;-3.60;99.90;;;;;;5093190;28;20077;-81
2021/03/09 05:56:47;;;;;;;40.60;18.97;;;-3.60;99.90;;;;;;5093099;28;20085;-81
2021/03/09 05:59:13;;;;;;;31.20;17.63;;;-3.60;99.90;;;;;;5093563;28;20028;-80
2021/03/09 06:01:39;;;;;;;30.97;17.63;;;-3.50;99.90;;;;;;5091691;28;20530;-81
2021/03/09 06:04:05;;;;;;;30.87;17.60;;;-3.50;99.90;;;;;;5091670;28;20032;-81
2021/03/09 06:06:32;;;;;;;27.73;16.10;;;-3.50;99.90;;;;;;5093084;28;20034;-81
2021/03/09 06:08:58;;;;;;;32.80;16.33;;;-3.40;99.90;;;;;;5091472;28;20428;-81
2021/03/09 06:11:24;;;;;;;32.60;16.77;;;-3.30;99.90;;;;;;5092999;28;20039;-82
2021/03/09 06:13:50;;;;;;;39.10;17.53;;;-3.30;99.90;;;;;;5093246;28;20028;-81
2021/03/09 06:16:16;;;;;;;28.93;16.43;;;-3.20;99.90;;;;;;5091496;28;20024;-82
2021/03/09 06:18:58;;;;;;;27.43;16.63;;;-3.10;99.90;;;;;;5092028;28;20035;-78
2021/03/09 06:21:25;;;;;;;30.97;16.63;;;-3.10;99.90;;;;;;5092813;28;20052;-81
2021/03/09 06:23:51;;;;;;;36.10;17.53;;;-3.00;99.90;;;;;;5091805;28;20379;-81
2021/03/09 06:26:35;;;;;;;30.90;15.80;;;-2.90;99.90;;;;;;5090425;28;20058;-81
2021/03/09 06:29:11;;;;;;;21.87;12.17;;;-2.90;99.90;;;;;;5091954;28;20483;-82
2021/03/09 06:32:04;;;;;;;32.23;17.40;;;-2.80;99.90;;;;;;5093128;28;20020;-79
2021/03/09 06:34:34;;;;;;;28.63;16.37;;;-2.70;99.90;;;;;;5094876;28;20381;-78
2021/03/09 06:37:12;;;;;;;28.57;16.60;;;-2.60;99.90;;;;;;5096462;28;20028;-79
2021/03/09 06:39:51;;;;;;;29.73;16.67;;;-2.50;99.90;;;;;;5107634;28;20031;-82
2021/03/09 06:42:20;;;;;;;30.03;17.57;;;-2.40;99.90;;;;;;5124354;28;20099;-82
2021/03/09 06:44:51;;;;;;;28.10;16.80;;;-2.40;99.90;;;;;;5121289;28;20057;-82
2021/03/09 06:47:17;;;;;;;35.83;19.10;;;-2.30;99.90;;;;;;5120171;28;20016;-81
2021/03/09 06:49:54;;;;;;;34.20;19.17;;;-2.20;99.90;;;;;;5118317;28;20027;-81
2021/03/09 06:52:21;;;;;;;29.83;17.40;;;-2.20;99.90;;;;;;5116951;28;20355;-77
2021/03/09 06:54:51;;;;;;;33.43;17.80;;;-2.10;99.90;;;;;;5103995;28;20443;-77
2021/03/09 06:57:18;;;;;;;35.53;20.37;;;-2.00;99.90;;;;;;5091171;28;20027;-77
2021/03/09 06:59:49;;;;;;;31.30;18.70;;;-2.00;99.90;;;;;;5094604;28;20020;-77
2021/03/09 07:02:41;;;;;;;36.53;19.60;;;-2.00;99.90;;;;;;5095144;28;20024;-77
2021/03/09 07:05:09;;;;;;;39.50;19.67;;;-1.90;99.90;;;;;;5088431;28;20040;-77
2021/03/09 07:07:37;;;;;;;34.23;19.90;;;-1.90;99.90;;;;;;5094309;28;20479;-77
2021/03/09 07:10:14;;;;;;;38.10;22.37;;;-1.80;99.90;;;;;;5091130;28;20060;-77
2021/03/09 07:12:42;;;;;;;36.40;22.50;;;-1.80;99.90;;;;;;5091295;28;20065;-77
2021/03/09 07:15:11;;;;;;;36.20;21.93;;;-1.70;99.90;;;;;;5094183;28;20116;-78
2021/03/09 07:17:38;;;;;;;36.93;23.20;;;-1.60;99.90;;;;;;5093259;28;20039;-77
2021/03/09 07:20:14;;;;;;;36.90;21.63;;;-1.60;99.90;;;;;;5094768;28;20032;-77
2021/03/09 07:22:41;;;;;;;31.47;20.20;;;-1.50;99.90;;;;;;5093496;28;20028;-77
2021/03/09 07:25:12;;;;;;;36.87;22.07;;;-1.40;99.90;;;;;;5093383;28;20081;-77
2021/03/09 07:27:58;;;;;;;38.43;20.87;;;-1.40;99.90;;;;;;5085733;28;20035;-77
2021/03/09 07:30:26;;;;;;;37.67;22.97;;;-1.30;99.90;;;;;;5091836;28;20089;-78
2021/03/09 07:32:54;;;;;;;35.83;23.47;;;-1.30;99.90;;;;;;5091186;28;20593;-77
2021/03/09 07:35:21;;;;;;;34.97;21.53;;;-1.20;99.90;;;;;;5092393;28;20083;-78
2021/03/09 07:37:47;;;;;;;36.63;21.20;;;-1.20;99.90;;;;;;5091132;28;20096;-78
2021/03/09 07:40:15;;;;;;;33.43;21.33;;;-1.10;99.90;;;;;;5091184;28;20031;-78
2021/03/09 07:42:41;;;;;;;36.90;21.73;;;-1.10;99.90;;;;;;5095111;28;20508;-78
2021/03/09 07:45:13;;;;;;;40.03;22.83;;;-1.00;99.90;;;;;;5091892;28;20203;-78
2021/03/09 07:47:50;;;;;;;36.90;22.17;;;-0.90;99.90;;;;;;5091784;28;20537;-78
2021/03/09 07:50:17;;;;;;;35.47;20.63;;;-0.80;99.90;;;;;;5091213;28;20088;-78
2021/03/09 07:52:57;;;;;;;39.83;21.60;;;-0.70;99.90;;;;;;5092414;28;20036;-78
2021/03/09 07:55:24;;;;;;;35.83;22.27;;;-0.70;99.90;;;;;;5095557;28;20074;-79
2021/03/09 07:58:10;;;;;;;35.83;22.27;;;-0.70;99.90;;;;;;5089905;28;20069;-78
2021/03/09 08:00:56;;;;;;;35.43;22.10;;;-0.70;99.90;;;;;;5093316;28;20179;-69
2021/03/09 08:03:28;;;;;;;37.45;22.40;;;-0.60;99.90;;;;;;5091638;28;20031;-77
2021/03/09 08:06:08;;;;;;;39.67;22.93;;;-0.50;99.90;;;;;;5089230;28;20035;-77
2021/03/09 08:08:41;;;;;;;35.90;22.53;;;-0.40;99.90;;;;;;5091347;28;20038;-78
2021/03/09 08:11:27;;;;;;;35.60;22.37;;;-0.30;99.90;;;;;;5092326;28;20043;-78
2021/03/09 08:14:05;;;;;;;;;;;-0.10;99.90;;;;;;5084395;28;20523;-77
2021/03/09 08:16:44;;;;;;;35.63;19.80;;;0.00;99.90;;;;;;5090635;28;20713;-78
2021/03/09 08:19:23;;;;;;;35.10;21.17;;;0.10;99.90;;;;;;5088541;28;20032;-78
2021/03/09 08:22:02;;;;;;;37.63;22.27;;;0.20;99.90;;;;;;5085400;28;20403;-78
2021/03/09 08:24:40;;;;;;;34.80;21.37;;;0.30;99.90;;;;;;5091798;28;20051;-78
2021/03/09 08:27:24;;;;;;;32.83;20.43;;;0.50;99.90;;;;;;5089979;28;20020;-78
2021/03/09 08:29:50;;;;;;;33.53;20.03;;;0.60;99.90;;;;;;5089880;28;20024;-78
2021/03/09 08:32:25;;;;;;;31.97;20.97;;;0.70;99.90;;;;;;5092333;28;20035;-78
2021/03/09 08:35:11;;;;;;;32.20;21.83;;;0.80;99.90;;;;;;5094965;28;20103;-78
2021/03/09 08:37:39;;;;;;;39.33;19.97;;;0.90;99.90;;;;;;5092458;28;20085;-78
2021/03/09 08:40:13;;;;;;;32.57;21.63;;;1.00;99.90;;;;;;5092780;28;20035;-78
2021/03/09 08:43:00;;;;;;;34.30;19.98;;;1.10;99.90;;;;;;5092817;28;20028;-78
2021/03/09 08:45:52;;;;;;;31.70;20.40;;;1.20;99.90;;;;;;5092090;28;20036;-78
2021/03/09 08:48:18;;;;;;;34.07;20.43;;;1.30;99.90;;;;;;5086543;28;20032;-78
2021/03/09 08:50:45;;;;;;;29.57;19.30;;;1.40;99.90;;;;;;5092899;28;20521;-78
2021/03/09 08:53:26;;;;;;;31.53;19.70;;;1.40;99.90;;;;;;5092905;28;20046;-78
2021/03/09 08:55:56;;;;;;;36.73;24.50;;;1.50;99.90;;;;;;5091477;28;20034;-78
2021/03/09 08:58:22;;;;;;;35.67;21.03;;;1.60;99.90;;;;;;5092209;28;20085;-78
2021/03/09 09:00:48;;;;;;;31.07;19.77;;;1.70;99.90;;;;;;5092752;28;20318;-78
2021/03/09 09:03:30;;;;;;;34.43;22.13;;;1.70;99.90;;;;;;5092914;28;20031;-78
2021/03/09 09:05:55;;;;;;;30.73;19.53;;;1.70;99.90;;;;;;5088708;28;20472;-78
2021/03/09 09:08:21;;;;;;;30.90;21.03;;;1.90;99.90;;;;;;5089067;28;20035;-78
2021/03/09 09:10:46;;;;;;;31.80;20.27;;;2.00;99.90;;;;;;5090285;28;20051;-77
2021/03/09 09:13:12;;;;;;;32.83;20.53;;;2.10;99.90;;;;;;5096660;28;20024;-78
2021/03/09 09:15:37;;;;;;;28.20;19.80;;;2.20;99.90;;;;;;5091234;28;20031;-78
2021/03/09 09:18:07;;;;;;;31.33;19.07;;;2.30;99.90;;;;;;5089826;28;20063;-78
2021/03/09 09:20:33;;;;;;;26.80;18.80;;;2.50;99.90;;;;;;5090549;28;20369;-78
2021/03/09 09:23:11;;;;;;;29.90;18.37;;;2.70;99.90;;;;;;5090042;28;20028;-77
2021/03/09 09:25:38;;;;;;;31.57;18.63;;;2.70;99.90;;;;;;5087534;28;20059;-77
2021/03/09 09:28:05;;;;;;;29.90;19.30;;;2.90;99.90;;;;;;5088821;28;20384;-77
2021/03/09 09:30:33;;;;;;;28.50;18.80;;;3.00;99.90;;;;;;5089825;28;20099;-78
2021/03/09 09:32:59;;;;;;;28.80;18.67;;;3.10;99.90;;;;;;5094739;28;20020;-78
2021/03/09 09:35:27;;;;;;;28.17;17.73;;;3.30;99.90;;;;;;5091433;28;20080;-78
2021/03/09 09:38:01;;;;;;;33.03;18.63;;;3.50;99.90;;;;;;5087682;28;20024;-78
2021/03/09 09:40:34;;;;;;;29.10;18.97;;;3.60;99.90;;;;;;5092219;28;20055;-78
2021/03/09 09:43:08;;;;;;;27.97;17.80;;;3.70;99.90;;;;;;5092004;28;20150;-78
2021/03/09 09:45:42;;;;;;;26.50;16.98;;;3.70;99.90;;;;;;5089974;28;20031;-78
2021/03/09 09:48:12;;;;;;;31.23;19.20;;;3.90;99.90;;;;;;5090866;28;20028;-78
2021/03/09 09:50:49;;;;;;;26.60;18.60;;;4.10;99.90;;;;;;5091424;28;20017;-77
2021/03/09 09:53:34;;;;;;;27.00;17.27;;;4.20;99.90;;;;;;5094195;28;20024;-78
2021/03/09 09:56:08;;;;;;;22.80;14.15;;;4.30;99.90;;;;;;5086657;28;20024;-78
2021/03/09 09:58:49;;;;;;;26.63;17.90;;;4.50;99.90;;;;;;5090433;28;20036;-78
2021/03/09 10:01:16;;;;;;;25.87;17.13;;;4.60;99.90;;;;;;5089676;28;20059;-78
2021/03/09 10:03:56;;;;;;;27.77;17.80;;;4.80;99.90;;;;;;5090917;28;20024;-78
2021/03/09 10:06:24;;;;;;;26.03;17.60;;;5.10;99.90;;;;;;5089896;28;20141;-78
2021/03/09 10:08:50;;;;;;;28.13;18.00;;;5.30;99.90;;;;;;5095061;28;20423;-78
2021/03/09 10:11:17;;;;;;;25.07;17.13;;;5.40;99.90;;;;;;5094522;28;20016;-78
2021/03/09 10:13:42;;;;;;;22.07;15.10;;;5.60;99.90;;;;;;5091636;28;20046;-78
2021/03/09 10:16:08;;;;;;;24.03;16.00;;;5.50;99.90;;;;;;5093037;28;20032;-78
2021/03/09 10:18:35;;;;;;;32.97;16.27;;;5.80;99.90;;;;;;5095146;28;20032;-78
2021/03/09 10:21:09;;;;;;;24.10;16.07;;;5.90;99.90;;;;;;5095945;28;20031;-78
2021/03/09 10:23:53;;;;;;;26.47;16.70;;;6.10;99.90;;;;;;5092097;28;20032;-77
2021/03/09 10:26:38;;;;;;;22.90;16.33;;;6.20;99.90;;;;;;5093032;28;20552;-82
2021/03/09 10:29:12;;;;;;;21.63;15.90;;;6.40;99.90;;;;;;5093048;28;20056;-82
2021/03/09 10:31:48;;;;;;;22.97;15.00;;;6.30;99.90;;;;;;5093723;28;20349;-82
2021/03/09 10:34:16;;;;;;;25.07;15.43;;;6.40;99.90;;;;;;5092965;28;20085;-82
2021/03/09 10:36:55;;;;;;;24.77;15.57;;;6.40;99.90;;;;;;5092319;28;20031;-82
2021/03/09 10:39:23;;;;;;;23.67;15.40;;;6.50;99.90;;;;;;5094903;28;20028;-82
2021/03/09 10:41:49;;;;;;;22.73;15.73;;;6.40;99.90;;;;;;5094577;28;20036;-83
2021/03/09 10:44:33;;;;;;;30.07;15.87;;;6.50;99.90;;;;;;5093669;28;20376;-83
2021/03/09 10:47:00;;;;;;;26.93;15.30;;;6.50;99.90;;;;;;5093590;28;20024;-83
2021/03/09 10:49:27;;;;;;;20.53;14.10;;;6.70;99.90;;;;;;5094136;28;20020;-83
2021/03/09 10:52:00;;;;;;;20.07;12.50;;;6.70;99.90;;;;;;5095180;28;20035;-83
2021/03/09 10:54:26;;;;;;;22.33;13.40;;;6.60;99.90;;;;;;5094227;28;20043;-82
2021/03/09 10:56:52;;;;;;;19.93;13.93;;;6.70;99.90;;;;;;5093187;28;20483;-82
2021/03/09 10:59:17;;;;;;;23.77;15.10;;;6.70;99.90;;;;;;5094890;28;20024;-82
2021/03/09 11:01:43;;;;;;;22.53;14.57;;;6.80;99.90;;;;;;5094285;28;20038;-82
2021/03/09 11:04:09;;;;;;;22.17;14.23;;;7.00;99.90;;;;;;5094624;28;20039;-81
2021/03/09 11:06:34;;;;;;;19.87;13.27;;;6.90;99.90;;;;;;5093779;28;20027;-82
2021/03/09 11:09:00;;;;;;;19.70;12.70;;;6.80;99.90;;;;;;5094811;28;20024;-84
2021/03/09 11:11:26;;;;;;;19.97;13.27;;;6.90;99.90;;;;;;5094681;28;20354;-84
2021/03/09 11:13:51;;;;;;;21.07;13.93;;;6.90;99.90;;;;;;5095200;28;20024;-84
2021/03/09 11:16:17;;;;;;;21.37;13.53;;;6.80;99.90;;;;;;5093092;28;20043;-84
2021/03/09 11:18:43;;;;;;;20.13;13.30;;;6.70;99.90;;;;;;5094947;28;20024;-84
2021/03/09 11:21:09;;;;;;;18.97;13.07;;;6.70;99.90;;;;;;5095740;28;20023;-83
2021/03/09 11:23:35;;;;;;;19.90;13.57;;;6.60;99.90;;;;;;5093629;28;20024;-76
2021/03/09 11:26:01;;;;;;;16.70;11.80;;;6.60;99.90;;;;;;5109072;28;20097;-76
2021/03/09 11:28:26;;;;;;;19.23;12.53;;;6.60;99.90;;;;;;5103851;28;20028;-76
2021/03/09 11:30:52;;;;;;;17.20;12.13;;;6.60;99.50;;;;;;5114047;28;20107;-76
2021/03/09 11:33:17;;;;;;;15.87;11.03;;;6.70;99.90;;;;;;5112429;28;20015;-77
2021/03/09 11:35:43;;;;;;;17.03;11.70;;;6.80;99.00;;;;;;5113277;28;20024;-76
2021/03/09 11:38:09;;;;;;;17.23;11.93;;;6.90;96.80;;;;;;5112805;28;20102;-76
2021/03/09 11:40:35;;;;;;;21.90;13.10;;;7.00;96.30;;;;;;5113359;28;20073;-76
2021/03/09 11:43:01;;;;;;;21.37;12.73;;;7.00;94.80;;;;;;5112848;28;20035;-77
2021/03/09 11:45:26;;;;;;;17.03;11.93;;;7.00;94.70;;;;;;5092628;28;20384;-76
2021/03/09 11:47:52;;;;;;;20.87;12.50;;;7.10;94.10;;;;;;5095013;28;20023;-76
2021/03/09 11:50:18;;;;;;;18.77;12.23;;;7.20;94.00;;;;;;5110278;28;20031;-76
2021/03/09 11:52:44;;;;;;;18.33;12.20;;;7.20;95.70;;;;;;5094142;28;20016;-78
2021/03/09 11:55:11;;;;;;;17.73;12.17;;;7.40;96.70;;;;;;5092346;28;20498;-82
2021/03/09 11:57:37;;;;;;;19.27;12.80;;;7.50;96.50;;;;;;5093398;28;20480;-81
2021/03/09 12:00:05;;;;;;;15.63;11.77;;;7.40;94.30;;;;;;5092997;28;20173;-82
2021/03/09 12:02:31;;;;;;;17.73;12.10;;;7.50;93.20;;;;;;5091272;28;20605;-81
2021/03/09 12:04:56;;;;;;;19.07;12.03;;;7.40;92.40;;;;;;5096870;28;20107;-81
2021/03/09 12:07:22;;;;;;;14.53;10.77;;;7.40;92.60;;;;;;5092158;28;20016;-80
2021/03/09 12:09:47;;;;;;;16.70;10.97;;;7.20;90.90;;;;;;5093828;28;20476;-81
2021/03/09 12:12:13;;;;;;;16.57;11.87;;;7.00;91.90;;;;;;5089549;28;20036;-81
2021/03/09 12:14:38;;;;;;;14.43;10.50;;;7.00;91.10;;;;;;5089310;28;20838;-80
2021/03/09 12:17:04;;;;;;;16.63;10.93;;;6.90;90.50;;;;;;5089410;28;20031;-80
2021/03/09 12:19:30;;;;;;;15.97;10.70;;;7.00;90.50;;;;;;5092704;28;20031;-80
2021/03/09 12:21:55;;;;;;;19.23;11.70;;;7.10;92.20;;;;;;5092707;28;20028;-80
2021/03/09 12:24:21;;;;;;;15.53;10.67;;;7.30;92.10;;;;;;5092669;28;20539;-80
2021/03/09 12:26:47;;;;;;;14.13;10.30;;;7.60;88.70;;;;;;5091893;28;20032;-80
2021/03/09 12:29:12;;;;;;;12.87;9.40;;;7.70;89.20;;;;;;5090724;28;20679;-80
2021/03/09 12:31:38;;;;;;;16.40;10.27;;;7.80;89.20;;;;;;5091997;28;20125;-80
2021/03/09 12:34:03;;;;;;;15.17;10.47;;;7.90;87.80;;;;;;5093420;28;20387;-77
2021/03/09 12:36:29;;;;;;;15.60;10.63;;;8.20;84.40;;;;;;5092969;28;20027;-78
2021/03/09 12:38:54;;;;;;;15.70;10.43;;;8.30;82.90;;;;;;5092074;28;20043;-77
2021/03/09 12:41:20;;;;;;;20.30;10.70;;;8.30;81.00;;;;;;5091805;28;20052;-78